sensor_id;sensor_type;location;lat;lon;timestamp;P1;durP1;ratioP1;P2;durP2;ratioP2
48743;SDS011;34538;48.836;9.174;2024-02-26T00:00:11;6.38;;;2.80;;
48743;SDS011;34538;48.836;9.174;2024-02-26T00:02:39;7.10;;;2.67;;
48743;SDS011;34538;48.836;9.174;2024-02-26T00:05:07;4.65;;;2.45;;
48743;SDS011;34538;48.836;9.174;2024-02-26T00:07:34;4.50;;;2.25;;
48743;SDS011;34538;48.836;9.174;2024-02-26T00:10:01;3.55;;;1.67;;
48743;SDS011;34538;48.836;9.174;2024-02-26T00:12:29;3.00;;;1.52;;
48743;SDS011;34538;48.836;9.174;2024-02-26T00:14:56;2.35;;;1.65;;
48743;SDS011;34538;48.836;9.174;2024-02-26T00:17:25;3.00;;;1.65;;
48743;SDS011;34538;48.836;9.174;2024-02-26T00:19:52;3.13;;;1.80;;
48743;SDS011;34538;48.836;9.174;2024-02-26T00:22:19;2.88;;;1.67;;
48743;SDS011;34538;48.836;9.174;2024-02-26T00:24:47;4.35;;;1.90;;
48743;SDS011;34538;48.836;9.174;2024-02-26T00:27:14;4.60;;;1.80;;
48743;SDS011;34538;48.836;9.174;2024-02-26T00:29:41;2.80;;;1.60;;
48743;SDS011;34538;48.836;9.174;2024-02-26T00:32:08;3.53;;;1.98;;
48743;SDS011;34538;48.836;9.174;2024-02-26T00:34:36;2.20;;;1.27;;
48743;SDS011;34538;48.836;9.174;2024-02-26T00:37:03;2.83;;;1.50;;
48743;SDS011;34538;48.836;9.174;2024-02-26T00:39:31;2.33;;;1.50;;
48743;SDS011;34538;48.836;9.174;2024-02-26T00:41:57;3.47;;;1.50;;
48743;SDS011;34538;48.836;9.174;2024-02-26T00:44:24;3.67;;;1.40;;
48743;SDS011;34538;48.836;9.174;2024-02-26T00:46:53;3.83;;;1.55;;
48743;SDS011;34538;48.836;9.174;2024-02-26T00:49:19;3.80;;;1.55;;
48743;SDS011;34538;48.836;9.174;2024-02-26T00:51:47;3.17;;;1.85;;
48743;SDS011;34538;48.836;9.174;2024-02-26T00:54:14;3.17;;;1.52;;
48743;SDS011;34538;48.836;9.174;2024-02-26T00:56:42;2.97;;;1.40;;
48743;SDS011;34538;48.836;9.174;2024-02-26T00:59:08;2.45;;;1.50;;
48743;SDS011;34538;48.836;9.174;2024-02-26T01:01:35;2.35;;;1.27;;
48743;SDS011;34538;48.836;9.174;2024-02-26T01:04:02;4.18;;;1.45;;
48743;SDS011;34538;48.836;9.174;2024-02-26T01:06:29;2.38;;;1.20;;
48743;SDS011;34538;48.836;9.174;2024-02-26T01:08:58;4.38;;;1.70;;
48743;SDS011;34538;48.836;9.174;2024-02-26T01:11:25;1.80;;;1.13;;
48743;SDS011;34538;48.836;9.174;2024-02-26T01:13:52;2.45;;;1.50;;
48743;SDS011;34538;48.836;9.174;2024-02-26T01:16:22;2.42;;;1.52;;
48743;SDS011;34538;48.836;9.174;2024-02-26T01:18:49;2.70;;;1.55;;
48743;SDS011;34538;48.836;9.174;2024-02-26T01:21:16;3.42;;;1.50;;
48743;SDS011;34538;48.836;9.174;2024-02-26T01:23:42;2.63;;;1.42;;
48743;SDS011;34538;48.836;9.174;2024-02-26T01:26:11;3.40;;;1.58;;
48743;SDS011;34538;48.836;9.174;2024-02-26T01:28:38;2.38;;;1.20;;
48743;SDS011;34538;48.836;9.174;2024-02-26T01:31:05;2.50;;;1.58;;
48743;SDS011;34538;48.836;9.174;2024-02-26T01:33:33;2.63;;;1.38;;
48743;SDS011;34538;48.836;9.174;2024-02-26T01:36:00;3.90;;;1.35;;
48743;SDS011;34538;48.836;9.174;2024-02-26T01:38:27;3.17;;;1.65;;
48743;SDS011;34538;48.836;9.174;2024-02-26T01:40:54;3.85;;;1.90;;
48743;SDS011;34538;48.836;9.174;2024-02-26T01:43:23;2.45;;;1.70;;
48743;SDS011;34538;48.836;9.174;2024-02-26T01:45:50;4.13;;;1.52;;
48743;SDS011;34538;48.836;9.174;2024-02-26T01:48:16;4.43;;;1.52;;
48743;SDS011;34538;48.836;9.174;2024-02-26T01:50:44;3.63;;;1.75;;
48743;SDS011;34538;48.836;9.174;2024-02-26T01:53:11;2.35;;;1.35;;
48743;SDS011;34538;48.836;9.174;2024-02-26T01:55:38;3.15;;;1.52;;
48743;SDS011;34538;48.836;9.174;2024-02-26T01:58:06;3.00;;;1.63;;
48743;SDS011;34538;48.836;9.174;2024-02-26T02:00:35;2.78;;;1.63;;
48743;SDS011;34538;48.836;9.174;2024-02-26T02:03:02;4.28;;;2.00;;
48743;SDS011;34538;48.836;9.174;2024-02-26T02:05:30;4.18;;;1.60;;
48743;SDS011;34538;48.836;9.174;2024-02-26T02:07:59;3.33;;;1.75;;
48743;SDS011;34538;48.836;9.174;2024-02-26T02:10:26;5.18;;;2.30;;
48743;SDS011;34538;48.836;9.174;2024-02-26T02:12:53;2.20;;;1.40;;
48743;SDS011;34538;48.836;9.174;2024-02-26T02:15:20;1.95;;;1.23;;
48743;SDS011;34538;48.836;9.174;2024-02-26T02:17:49;3.40;;;1.45;;
48743;SDS011;34538;48.836;9.174;2024-02-26T02:20:16;3.42;;;1.67;;
48743;SDS011;34538;48.836;9.174;2024-02-26T02:22:45;3.22;;;1.60;;
48743;SDS011;34538;48.836;9.174;2024-02-26T02:25:12;3.97;;;1.70;;
48743;SDS011;34538;48.836;9.174;2024-02-26T02:27:39;3.40;;;1.42;;
48743;SDS011;34538;48.836;9.174;2024-02-26T02:30:07;3.40;;;1.90;;
48743;SDS011;34538;48.836;9.174;2024-02-26T02:32:34;4.43;;;2.00;;
48743;SDS011;34538;48.836;9.174;2024-02-26T02:35:04;3.85;;;1.63;;
48743;SDS011;34538;48.836;9.174;2024-02-26T02:37:32;2.70;;;1.58;;
48743;SDS011;34538;48.836;9.174;2024-02-26T02:40:00;2.80;;;1.90;;
48743;SDS011;34538;48.836;9.174;2024-02-26T02:42:27;2.90;;;1.67;;
48743;SDS011;34538;48.836;9.174;2024-02-26T02:44:54;3.03;;;1.83;;
48743;SDS011;34538;48.836;9.174;2024-02-26T02:47:21;4.72;;;1.80;;
48743;SDS011;34538;48.836;9.174;2024-02-26T02:49:48;3.75;;;1.63;;
48743;SDS011;34538;48.836;9.174;2024-02-26T02:52:15;3.72;;;1.80;;
48743;SDS011;34538;48.836;9.174;2024-02-26T02:54:42;1.95;;;1.45;;
48743;SDS011;34538;48.836;9.174;2024-02-26T02:57:10;3.97;;;1.80;;
48743;SDS011;34538;48.836;9.174;2024-02-26T02:59:37;4.28;;;2.03;;
48743;SDS011;34538;48.836;9.174;2024-02-26T03:02:05;4.85;;;2.03;;
48743;SDS011;34538;48.836;9.174;2024-02-26T03:04:32;3.13;;;2.05;;
48743;SDS011;34538;48.836;9.174;2024-02-26T03:06:59;3.35;;;2.05;;
48743;SDS011;34538;48.836;9.174;2024-02-26T03:09:26;3.95;;;2.08;;
48743;SDS011;34538;48.836;9.174;2024-02-26T03:11:53;3.70;;;2.05;;
48743;SDS011;34538;48.836;9.174;2024-02-26T03:14:21;3.17;;;1.70;;
48743;SDS011;34538;48.836;9.174;2024-02-26T03:16:47;3.65;;;1.77;;
48743;SDS011;34538;48.836;9.174;2024-02-26T03:19:14;2.05;;;1.35;;
48743;SDS011;34538;48.836;9.174;2024-02-26T03:21:41;2.75;;;1.70;;
48743;SDS011;34538;48.836;9.174;2024-02-26T03:24:08;3.50;;;1.50;;
48743;SDS011;34538;48.836;9.174;2024-02-26T03:26:35;3.22;;;1.80;;
48743;SDS011;34538;48.836;9.174;2024-02-26T03:29:02;2.22;;;1.55;;
48743;SDS011;34538;48.836;9.174;2024-02-26T03:31:31;3.00;;;1.48;;
48743;SDS011;34538;48.836;9.174;2024-02-26T03:33:57;2.58;;;1.77;;
48743;SDS011;34538;48.836;9.174;2024-02-26T03:36:24;2.78;;;1.25;;
48743;SDS011;34538;48.836;9.174;2024-02-26T03:38:51;2.92;;;1.27;;
48743;SDS011;34538;48.836;9.174;2024-02-26T03:41:18;3.72;;;1.70;;
48743;SDS011;34538;48.836;9.174;2024-02-26T03:43:45;2.67;;;1.63;;
48743;SDS011;34538;48.836;9.174;2024-02-26T03:46:12;1.50;;;1.30;;
48743;SDS011;34538;48.836;9.174;2024-02-26T03:48:40;3.50;;;1.77;;
48743;SDS011;34538;48.836;9.174;2024-02-26T03:51:08;2.65;;;1.65;;
48743;SDS011;34538;48.836;9.174;2024-02-26T03:53:35;3.45;;;1.45;;
48743;SDS011;34538;48.836;9.174;2024-02-26T03:56:03;2.28;;;1.33;;
48743;SDS011;34538;48.836;9.174;2024-02-26T03:58:30;2.45;;;1.60;;
48743;SDS011;34538;48.836;9.174;2024-02-26T04:00:57;2.65;;;1.55;;
48743;SDS011;34538;48.836;9.174;2024-02-26T04:03:24;2.63;;;1.70;;
48743;SDS011;34538;48.836;9.174;2024-02-26T04:05:53;3.25;;;1.80;;
48743;SDS011;34538;48.836;9.174;2024-02-26T04:08:19;3.85;;;1.90;;
48743;SDS011;34538;48.836;9.174;2024-02-26T04:10:47;2.25;;;1.55;;
48743;SDS011;34538;48.836;9.174;2024-02-26T04:13:13;2.63;;;1.48;;
48743;SDS011;34538;48.836;9.174;2024-02-26T04:15:40;3.72;;;1.90;;
48743;SDS011;34538;48.836;9.174;2024-02-26T04:18:07;2.33;;;1.60;;
48743;SDS011;34538;48.836;9.174;2024-02-26T04:20:34;3.63;;;1.55;;
48743;SDS011;34538;48.836;9.174;2024-02-26T04:23:03;2.78;;;1.40;;
48743;SDS011;34538;48.836;9.174;2024-02-26T04:25:30;3.65;;;1.27;;
48743;SDS011;34538;48.836;9.174;2024-02-26T04:27:57;2.60;;;1.40;;
48743;SDS011;34538;48.836;9.174;2024-02-26T04:30:24;2.13;;;1.30;;
48743;SDS011;34538;48.836;9.174;2024-02-26T04:32:51;1.98;;;1.10;;
48743;SDS011;34538;48.836;9.174;2024-02-26T04:35:18;1.08;;;0.98;;
48743;SDS011;34538;48.836;9.174;2024-02-26T04:37:44;2.92;;;1.50;;
48743;SDS011;34538;48.836;9.174;2024-02-26T04:40:13;2.22;;;1.40;;
48743;SDS011;34538;48.836;9.174;2024-02-26T04:42:40;2.33;;;1.27;;
48743;SDS011;34538;48.836;9.174;2024-02-26T04:45:07;3.20;;;1.30;;
48743;SDS011;34538;48.836;9.174;2024-02-26T04:47:34;3.00;;;1.38;;
48743;SDS011;34538;48.836;9.174;2024-02-26T04:50:02;4.07;;;1.80;;
48743;SDS011;34538;48.836;9.174;2024-02-26T04:52:29;2.67;;;1.20;;
48743;SDS011;34538;48.836;9.174;2024-02-26T04:54:56;2.38;;;1.45;;
48743;SDS011;34538;48.836;9.174;2024-02-26T04:57:26;3.40;;;1.52;;
48743;SDS011;34538;48.836;9.174;2024-02-26T04:59:53;2.22;;;1.00;;
48743;SDS011;34538;48.836;9.174;2024-02-26T05:02:20;2.33;;;1.30;;
48743;SDS011;34538;48.836;9.174;2024-02-26T05:04:46;3.33;;;1.30;;
48743;SDS011;34538;48.836;9.174;2024-02-26T05:07:13;2.53;;;1.60;;
48743;SDS011;34538;48.836;9.174;2024-02-26T05:09:42;2.15;;;1.30;;
48743;SDS011;34538;48.836;9.174;2024-02-26T05:12:09;2.80;;;1.60;;
48743;SDS011;34538;48.836;9.174;2024-02-26T05:14:38;2.13;;;1.20;;
48743;SDS011;34538;48.836;9.174;2024-02-26T05:17:05;1.75;;;1.27;;
48743;SDS011;34538;48.836;9.174;2024-02-26T05:19:32;2.38;;;1.38;;
48743;SDS011;34538;48.836;9.174;2024-02-26T05:21:59;1.70;;;1.20;;
48743;SDS011;34538;48.836;9.174;2024-02-26T05:24:26;2.00;;;1.27;;
48743;SDS011;34538;48.836;9.174;2024-02-26T05:26:53;2.85;;;1.45;;
48743;SDS011;34538;48.836;9.174;2024-02-26T05:29:20;7.85;;;3.42;;
48743;SDS011;34538;48.836;9.174;2024-02-26T05:31:49;4.80;;;2.35;;
48743;SDS011;34538;48.836;9.174;2024-02-26T05:34:16;4.47;;;2.45;;
48743;SDS011;34538;48.836;9.174;2024-02-26T05:36:43;3.92;;;2.25;;
48743;SDS011;34538;48.836;9.174;2024-02-26T05:39:10;6.50;;;2.50;;
48743;SDS011;34538;48.836;9.174;2024-02-26T05:41:37;4.38;;;2.17;;
48743;SDS011;34538;48.836;9.174;2024-02-26T05:44:04;5.82;;;2.10;;
48743;SDS011;34538;48.836;9.174;2024-02-26T05:46:35;4.00;;;2.30;;
48743;SDS011;34538;48.836;9.174;2024-02-26T05:49:03;3.40;;;1.70;;
48743;SDS011;34538;48.836;9.174;2024-02-26T05:51:30;3.65;;;2.28;;
48743;SDS011;34538;48.836;9.174;2024-02-26T05:53:57;5.13;;;2.03;;
48743;SDS011;34538;48.836;9.174;2024-02-26T05:56:24;3.15;;;1.75;;
48743;SDS011;34538;48.836;9.174;2024-02-26T05:58:51;3.90;;;2.33;;
48743;SDS011;34538;48.836;9.174;2024-02-26T06:01:19;4.25;;;1.75;;
48743;SDS011;34538;48.836;9.174;2024-02-26T06:03:46;1.90;;;1.40;;
48743;SDS011;34538;48.836;9.174;2024-02-26T06:06:15;4.38;;;1.80;;
48743;SDS011;34538;48.836;9.174;2024-02-26T06:08:41;3.10;;;1.67;;
48743;SDS011;34538;48.836;9.174;2024-02-26T06:11:08;2.30;;;1.55;;
48743;SDS011;34538;48.836;9.174;2024-02-26T06:13:35;2.80;;;2.03;;
48743;SDS011;34538;48.836;9.174;2024-02-26T06:16:02;2.97;;;1.88;;
48743;SDS011;34538;48.836;9.174;2024-02-26T06:18:30;2.90;;;1.55;;
48743;SDS011;34538;48.836;9.174;2024-02-26T06:20:57;4.43;;;2.03;;
48743;SDS011;34538;48.836;9.174;2024-02-26T06:23:26;2.53;;;1.77;;
48743;SDS011;34538;48.836;9.174;2024-02-26T06:25:53;2.95;;;1.77;;
48743;SDS011;34538;48.836;9.174;2024-02-26T06:28:19;3.55;;;1.80;;
48743;SDS011;34538;48.836;9.174;2024-02-26T06:30:46;2.45;;;1.77;;
48743;SDS011;34538;48.836;9.174;2024-02-26T06:33:13;3.42;;;1.80;;
48743;SDS011;34538;48.836;9.174;2024-02-26T06:35:40;4.07;;;2.00;;
48743;SDS011;34538;48.836;9.174;2024-02-26T06:38:07;3.63;;;1.90;;
48743;SDS011;34538;48.836;9.174;2024-02-26T06:40:35;2.97;;;1.75;;
48743;SDS011;34538;48.836;9.174;2024-02-26T06:43:03;2.95;;;1.80;;
48743;SDS011;34538;48.836;9.174;2024-02-26T06:45:30;2.88;;;1.70;;
48743;SDS011;34538;48.836;9.174;2024-02-26T06:47:58;3.10;;;1.80;;
48743;SDS011;34538;48.836;9.174;2024-02-26T06:50:25;3.65;;;2.10;;
48743;SDS011;34538;48.836;9.174;2024-02-26T06:52:52;4.57;;;2.05;;
48743;SDS011;34538;48.836;9.174;2024-02-26T06:55:19;3.85;;;2.17;;
48743;SDS011;34538;48.836;9.174;2024-02-26T06:57:47;2.60;;;1.77;;
48743;SDS011;34538;48.836;9.174;2024-02-26T07:00:15;4.90;;;2.92;;
48743;SDS011;34538;48.836;9.174;2024-02-26T07:02:42;3.55;;;1.85;;
48743;SDS011;34538;48.836;9.174;2024-02-26T07:05:09;3.47;;;2.25;;
48743;SDS011;34538;48.836;9.174;2024-02-26T07:07:36;4.15;;;2.28;;
48743;SDS011;34538;48.836;9.174;2024-02-26T07:10:03;2.80;;;2.03;;
48743;SDS011;34538;48.836;9.174;2024-02-26T07:12:31;3.13;;;2.13;;
48743;SDS011;34538;48.836;9.174;2024-02-26T07:15:00;3.60;;;2.38;;
48743;SDS011;34538;48.836;9.174;2024-02-26T07:17:27;4.25;;;2.10;;
48743;SDS011;34538;48.836;9.174;2024-02-26T07:19:54;3.92;;;1.95;;
48743;SDS011;34538;48.836;9.174;2024-02-26T07:22:21;4.82;;;2.83;;
48743;SDS011;34538;48.836;9.174;2024-02-26T07:24:49;4.70;;;2.58;;
48743;SDS011;34538;48.836;9.174;2024-02-26T07:27:16;4.72;;;2.22;;
48743;SDS011;34538;48.836;9.174;2024-02-26T07:29:43;3.17;;;2.00;;
48743;SDS011;34538;48.836;9.174;2024-02-26T07:32:11;5.93;;;2.22;;
48743;SDS011;34538;48.836;9.174;2024-02-26T07:34:38;6.05;;;2.40;;
48743;SDS011;34538;48.836;9.174;2024-02-26T07:37:07;6.03;;;2.60;;
48743;SDS011;34538;48.836;9.174;2024-02-26T07:39:34;4.32;;;2.17;;
48743;SDS011;34538;48.836;9.174;2024-02-26T07:42:02;3.47;;;1.92;;
48743;SDS011;34538;48.836;9.174;2024-02-26T07:44:29;4.07;;;2.20;;
48743;SDS011;34538;48.836;9.174;2024-02-26T07:46:56;3.55;;;2.17;;
48743;SDS011;34538;48.836;9.174;2024-02-26T07:49:24;4.00;;;1.83;;
48743;SDS011;34538;48.836;9.174;2024-02-26T07:51:50;3.47;;;2.20;;
48743;SDS011;34538;48.836;9.174;2024-02-26T07:54:17;4.43;;;2.25;;
48743;SDS011;34538;48.836;9.174;2024-02-26T07:56:44;4.15;;;2.30;;
48743;SDS011;34538;48.836;9.174;2024-02-26T07:59:11;4.78;;;2.80;;
48743;SDS011;34538;48.836;9.174;2024-02-26T08:01:38;4.35;;;2.22;;
48743;SDS011;34538;48.836;9.174;2024-02-26T08:04:06;4.90;;;2.38;;
48743;SDS011;34538;48.836;9.174;2024-02-26T08:06:34;6.50;;;2.42;;
48743;SDS011;34538;48.836;9.174;2024-02-26T08:09:01;4.63;;;2.60;;
48743;SDS011;34538;48.836;9.174;2024-02-26T08:11:29;6.32;;;2.97;;
48743;SDS011;34538;48.836;9.174;2024-02-26T08:13:56;6.72;;;2.50;;
48743;SDS011;34538;48.836;9.174;2024-02-26T08:16:24;5.10;;;2.80;;
48743;SDS011;34538;48.836;9.174;2024-02-26T08:18:51;5.43;;;2.92;;
48743;SDS011;34538;48.836;9.174;2024-02-26T08:21:17;4.28;;;2.60;;
48743;SDS011;34538;48.836;9.174;2024-02-26T08:23:45;6.68;;;2.90;;
48743;SDS011;34538;48.836;9.174;2024-02-26T08:26:12;5.35;;;2.85;;
48743;SDS011;34538;48.836;9.174;2024-02-26T08:28:39;7.55;;;2.72;;
48743;SDS011;34538;48.836;9.174;2024-02-26T08:31:06;4.75;;;2.90;;
48743;SDS011;34538;48.836;9.174;2024-02-26T08:33:33;6.00;;;2.75;;
48743;SDS011;34538;48.836;9.174;2024-02-26T08:36:03;5.40;;;2.85;;
48743;SDS011;34538;48.836;9.174;2024-02-26T08:38:30;6.13;;;3.30;;
48743;SDS011;34538;48.836;9.174;2024-02-26T08:41:01;4.40;;;2.75;;
48743;SDS011;34538;48.836;9.174;2024-02-26T08:43:27;5.05;;;2.30;;
48743;SDS011;34538;48.836;9.174;2024-02-26T08:45:54;7.25;;;2.78;;
48743;SDS011;34538;48.836;9.174;2024-02-26T08:48:21;7.72;;;2.40;;
48743;SDS011;34538;48.836;9.174;2024-02-26T08:50:48;4.40;;;2.20;;
48743;SDS011;34538;48.836;9.174;2024-02-26T08:53:15;5.65;;;2.30;;
48743;SDS011;34538;48.836;9.174;2024-02-26T08:55:42;5.30;;;2.80;;
48743;SDS011;34538;48.836;9.174;2024-02-26T08:58:10;6.63;;;2.38;;
48743;SDS011;34538;48.836;9.174;2024-02-26T09:00:37;3.63;;;1.95;;
48743;SDS011;34538;48.836;9.174;2024-02-26T09:03:04;4.03;;;2.33;;
48743;SDS011;34538;48.836;9.174;2024-02-26T09:05:31;2.83;;;1.83;;
48743;SDS011;34538;48.836;9.174;2024-02-26T09:07:58;7.47;;;2.53;;
48743;SDS011;34538;48.836;9.174;2024-02-26T09:10:25;6.18;;;2.38;;
48743;SDS011;34538;48.836;9.174;2024-02-26T09:12:51;7.85;;;2.63;;
48743;SDS011;34538;48.836;9.174;2024-02-26T09:15:21;4.30;;;2.40;;
48743;SDS011;34538;48.836;9.174;2024-02-26T09:17:48;3.95;;;2.30;;
48743;SDS011;34538;48.836;9.174;2024-02-26T09:20:17;4.25;;;2.72;;
48743;SDS011;34538;48.836;9.174;2024-02-26T09:22:45;9.40;;;2.63;;
48743;SDS011;34538;48.836;9.174;2024-02-26T09:25:12;6.05;;;2.20;;
48743;SDS011;34538;48.836;9.174;2024-02-26T09:27:41;4.30;;;2.00;;
48743;SDS011;34538;48.836;9.174;2024-02-26T09:30:09;4.78;;;2.20;;
48743;SDS011;34538;48.836;9.174;2024-02-26T09:32:38;3.45;;;2.17;;
48743;SDS011;34538;48.836;9.174;2024-02-26T09:35:06;7.70;;;3.55;;
48743;SDS011;34538;48.836;9.174;2024-02-26T09:37:33;3.47;;;2.10;;
48743;SDS011;34538;48.836;9.174;2024-02-26T09:40:02;3.70;;;2.30;;
48743;SDS011;34538;48.836;9.174;2024-02-26T09:42:29;4.63;;;2.20;;
48743;SDS011;34538;48.836;9.174;2024-02-26T09:44:57;2.95;;;1.85;;
48743;SDS011;34538;48.836;9.174;2024-02-26T09:47:28;3.25;;;1.85;;
48743;SDS011;34538;48.836;9.174;2024-02-26T09:49:59;2.60;;;1.98;;
48743;SDS011;34538;48.836;9.174;2024-02-26T09:52:29;2.93;;;2.07;;
48743;SDS011;34538;48.836;9.174;2024-02-26T09:54:59;3.15;;;2.25;;
48743;SDS011;34538;48.836;9.174;2024-02-26T09:57:28;3.28;;;1.80;;
48743;SDS011;34538;48.836;9.174;2024-02-26T09:59:56;2.95;;;1.98;;
48743;SDS011;34538;48.836;9.174;2024-02-26T10:02:26;2.88;;;1.63;;
48743;SDS011;34538;48.836;9.174;2024-02-26T10:04:54;2.90;;;1.80;;
48743;SDS011;34538;48.836;9.174;2024-02-26T10:07:25;4.13;;;2.20;;
48743;SDS011;34538;48.836;9.174;2024-02-26T10:09:55;3.17;;;2.03;;
48743;SDS011;34538;48.836;9.174;2024-02-26T10:12:22;3.28;;;1.65;;
48743;SDS011;34538;48.836;9.174;2024-02-26T10:14:50;4.13;;;2.08;;
48743;SDS011;34538;48.836;9.174;2024-02-26T10:17:17;4.60;;;2.13;;
48743;SDS011;34538;48.836;9.174;2024-02-26T10:19:46;3.13;;;1.92;;
48743;SDS011;34538;48.836;9.174;2024-02-26T10:22:12;2.50;;;1.77;;
48743;SDS011;34538;48.836;9.174;2024-02-26T10:24:41;3.47;;;1.73;;
48743;SDS011;34538;48.836;9.174;2024-02-26T10:27:08;3.03;;;2.13;;
48743;SDS011;34538;48.836;9.174;2024-02-26T10:29:35;5.97;;;2.13;;
48743;SDS011;34538;48.836;9.174;2024-02-26T10:32:02;4.10;;;2.33;;
48743;SDS011;34538;48.836;9.174;2024-02-26T10:34:29;3.05;;;1.75;;
48743;SDS011;34538;48.836;9.174;2024-02-26T10:36:57;2.90;;;1.90;;
48743;SDS011;34538;48.836;9.174;2024-02-26T10:39:27;2.45;;;1.52;;
48743;SDS011;34538;48.836;9.174;2024-02-26T10:41:56;4.68;;;1.77;;
48743;SDS011;34538;48.836;9.174;2024-02-26T10:44:22;4.40;;;1.80;;
48743;SDS011;34538;48.836;9.174;2024-02-26T10:46:52;3.85;;;1.95;;
48743;SDS011;34538;48.836;9.174;2024-02-26T10:49:19;2.78;;;1.63;;
48743;SDS011;34538;48.836;9.174;2024-02-26T10:51:50;3.13;;;1.92;;
48743;SDS011;34538;48.836;9.174;2024-02-26T10:54:21;3.17;;;1.85;;
48743;SDS011;34538;48.836;9.174;2024-02-26T10:56:53;2.55;;;1.40;;
48743;SDS011;34538;48.836;9.174;2024-02-26T10:59:23;3.30;;;1.67;;
48743;SDS011;34538;48.836;9.174;2024-02-26T11:01:50;3.47;;;1.45;;
48743;SDS011;34538;48.836;9.174;2024-02-26T11:04:17;4.20;;;1.70;;
48743;SDS011;34538;48.836;9.174;2024-02-26T11:06:45;4.07;;;1.20;;
48743;SDS011;34538;48.836;9.174;2024-02-26T11:09:14;1.98;;;1.27;;
48743;SDS011;34538;48.836;9.174;2024-02-26T11:11:42;2.55;;;1.40;;
48743;SDS011;34538;48.836;9.174;2024-02-26T11:14:09;1.55;;;1.17;;
48743;SDS011;34538;48.836;9.174;2024-02-26T11:16:40;1.73;;;1.17;;
48743;SDS011;34538;48.836;9.174;2024-02-26T11:19:08;1.88;;;1.17;;
48743;SDS011;34538;48.836;9.174;2024-02-26T11:21:36;2.47;;;1.23;;
48743;SDS011;34538;48.836;9.174;2024-02-26T11:24:07;2.90;;;1.10;;
48743;SDS011;34538;48.836;9.174;2024-02-26T11:26:39;1.45;;;0.90;;
48743;SDS011;34538;48.836;9.174;2024-02-26T11:29:10;2.22;;;1.40;;
48743;SDS011;34538;48.836;9.174;2024-02-26T11:31:41;2.03;;;1.10;;
48743;SDS011;34538;48.836;9.174;2024-02-26T11:34:08;1.40;;;0.90;;
48743;SDS011;34538;48.836;9.174;2024-02-26T11:36:36;1.23;;;0.90;;
48743;SDS011;34538;48.836;9.174;2024-02-26T11:39:04;1.80;;;1.02;;
48743;SDS011;34538;48.836;9.174;2024-02-26T11:41:31;2.10;;;1.30;;
48743;SDS011;34538;48.836;9.174;2024-02-26T11:44:00;2.80;;;1.20;;
48743;SDS011;34538;48.836;9.174;2024-02-26T11:46:29;2.10;;;1.10;;
48743;SDS011;34538;48.836;9.174;2024-02-26T11:48:59;1.73;;;0.90;;
48743;SDS011;34538;48.836;9.174;2024-02-26T11:51:27;1.90;;;1.08;;
48743;SDS011;34538;48.836;9.174;2024-02-26T11:53:58;1.10;;;1.00;;
48743;SDS011;34538;48.836;9.174;2024-02-26T11:56:25;2.28;;;1.05;;
48743;SDS011;34538;48.836;9.174;2024-02-26T11:58:57;2.40;;;1.08;;
48743;SDS011;34538;48.836;9.174;2024-02-26T12:01:40;1.07;;;0.90;;
48743;SDS011;34538;48.836;9.174;2024-02-26T12:04:14;1.38;;;0.88;;
48743;SDS011;34538;48.836;9.174;2024-02-26T12:06:47;2.30;;;0.93;;
48743;SDS011;34538;48.836;9.174;2024-02-26T12:09:31;1.77;;;1.02;;
48743;SDS011;34538;48.836;9.174;2024-02-26T12:11:59;1.70;;;1.13;;
48743;SDS011;34538;48.836;9.174;2024-02-26T12:14:28;1.42;;;0.90;;
48743;SDS011;34538;48.836;9.174;2024-02-26T12:16:55;1.65;;;1.00;;
48743;SDS011;34538;48.836;9.174;2024-02-26T12:19:24;3.15;;;0.85;;
48743;SDS011;34538;48.836;9.174;2024-02-26T12:21:51;1.45;;;1.20;;
48743;SDS011;34538;48.836;9.174;2024-02-26T12:24:20;1.92;;;0.85;;
48743;SDS011;34538;48.836;9.174;2024-02-26T12:26:47;1.25;;;0.90;;
48743;SDS011;34538;48.836;9.174;2024-02-26T12:29:14;1.67;;;1.15;;
48743;SDS011;34538;48.836;9.174;2024-02-26T12:31:41;3.30;;;1.60;;
48743;SDS011;34538;48.836;9.174;2024-02-26T12:34:08;3.72;;;1.23;;
48743;SDS011;34538;48.836;9.174;2024-02-26T12:36:37;2.28;;;1.20;;
48743;SDS011;34538;48.836;9.174;2024-02-26T12:39:05;2.63;;;1.15;;
48743;SDS011;34538;48.836;9.174;2024-02-26T12:41:34;1.20;;;0.88;;
48743;SDS011;34538;48.836;9.174;2024-02-26T12:44:01;2.03;;;1.00;;
48743;SDS011;34538;48.836;9.174;2024-02-26T12:46:28;2.13;;;0.95;;
48743;SDS011;34538;48.836;9.174;2024-02-26T12:48:55;2.80;;;1.10;;
48743;SDS011;34538;48.836;9.174;2024-02-26T12:51:23;5.45;;;1.10;;
48743;SDS011;34538;48.836;9.174;2024-02-26T12:53:52;1.70;;;1.08;;
48743;SDS011;34538;48.836;9.174;2024-02-26T12:56:20;2.15;;;1.30;;
48743;SDS011;34538;48.836;9.174;2024-02-26T12:58:48;2.15;;;1.05;;
48743;SDS011;34538;48.836;9.174;2024-02-26T13:01:18;5.55;;;1.73;;
48743;SDS011;34538;48.836;9.174;2024-02-26T13:03:48;2.80;;;1.10;;
48743;SDS011;34538;48.836;9.174;2024-02-26T13:06:16;3.72;;;0.82;;
48743;SDS011;34538;48.836;9.174;2024-02-26T13:08:43;3.13;;;1.15;;
48743;SDS011;34538;48.836;9.174;2024-02-26T13:11:11;1.88;;;0.80;;
48743;SDS011;34538;48.836;9.174;2024-02-26T13:13:38;2.92;;;1.08;;
48743;SDS011;34538;48.836;9.174;2024-02-26T13:16:07;2.83;;;1.10;;
48743;SDS011;34538;48.836;9.174;2024-02-26T13:18:36;1.50;;;0.80;;
48743;SDS011;34538;48.836;9.174;2024-02-26T13:21:07;1.70;;;1.00;;
48743;SDS011;34538;48.836;9.174;2024-02-26T13:23:35;1.58;;;0.98;;
48743;SDS011;34538;48.836;9.174;2024-02-26T13:26:02;6.55;;;1.20;;
48743;SDS011;34538;48.836;9.174;2024-02-26T13:28:31;2.50;;;0.98;;
48743;SDS011;34538;48.836;9.174;2024-02-26T13:30:58;1.40;;;1.02;;
48743;SDS011;34538;48.836;9.174;2024-02-26T13:33:28;2.08;;;0.98;;
48743;SDS011;34538;48.836;9.174;2024-02-26T13:35:55;1.63;;;0.98;;
48743;SDS011;34538;48.836;9.174;2024-02-26T13:38:23;3.03;;;1.00;;
48743;SDS011;34538;48.836;9.174;2024-02-26T13:40:51;1.42;;;0.95;;
48743;SDS011;34538;48.836;9.174;2024-02-26T13:43:18;1.25;;;0.80;;
48743;SDS011;34538;48.836;9.174;2024-02-26T13:45:46;3.50;;;1.00;;
48743;SDS011;34538;48.836;9.174;2024-02-26T13:48:14;3.08;;;0.85;;
48743;SDS011;34538;48.836;9.174;2024-02-26T13:50:41;1.55;;;0.90;;
48743;SDS011;34538;48.836;9.174;2024-02-26T13:53:10;1.30;;;0.73;;
48743;SDS011;34538;48.836;9.174;2024-02-26T13:55:37;1.55;;;0.70;;
48743;SDS011;34538;48.836;9.174;2024-02-26T13:58:07;0.90;;;0.80;;
48743;SDS011;34538;48.836;9.174;2024-02-26T14:00:38;1.50;;;0.77;;
48743;SDS011;34538;48.836;9.174;2024-02-26T14:03:07;1.13;;;0.80;;
48743;SDS011;34538;48.836;9.174;2024-02-26T14:05:34;0.82;;;0.65;;
48743;SDS011;34538;48.836;9.174;2024-02-26T14:08:01;0.63;;;0.60;;
48743;SDS011;34538;48.836;9.174;2024-02-26T14:10:29;0.93;;;0.60;;
48743;SDS011;34538;48.836;9.174;2024-02-26T14:12:57;0.80;;;0.63;;
48743;SDS011;34538;48.836;9.174;2024-02-26T14:15:25;1.60;;;0.70;;
48743;SDS011;34538;48.836;9.174;2024-02-26T14:17:52;0.90;;;0.55;;
48743;SDS011;34538;48.836;9.174;2024-02-26T14:20:22;1.75;;;0.70;;
48743;SDS011;34538;48.836;9.174;2024-02-26T14:22:50;2.75;;;0.63;;
48743;SDS011;34538;48.836;9.174;2024-02-26T14:25:18;0.90;;;0.68;;
48743;SDS011;34538;48.836;9.174;2024-02-26T14:27:45;0.73;;;0.50;;
48743;SDS011;34538;48.836;9.174;2024-02-26T14:30:13;2.53;;;0.40;;
48743;SDS011;34538;48.836;9.174;2024-02-26T14:32:40;1.67;;;0.60;;
48743;SDS011;34538;48.836;9.174;2024-02-26T14:35:07;1.35;;;0.68;;
48743;SDS011;34538;48.836;9.174;2024-02-26T14:37:36;0.98;;;0.60;;
48743;SDS011;34538;48.836;9.174;2024-02-26T14:40:03;0.40;;;0.30;;
48743;SDS011;34538;48.836;9.174;2024-02-26T14:42:31;1.33;;;0.30;;
48743;SDS011;34538;48.836;9.174;2024-02-26T14:44:58;0.52;;;0.40;;
48743;SDS011;34538;48.836;9.174;2024-02-26T14:47:25;0.77;;;0.40;;
48743;SDS011;34538;48.836;9.174;2024-02-26T14:49:52;1.55;;;0.40;;